Time;durP1;ratioP1;P1;durP2;ratioP2;P2;SDS_P1;SDS_P2;PMS_P1;PMS_P2;Temp;Humidity;BMP_temperature;BMP_pressure;BME280_temperature;BME280_humidity;BME280_pressure;Samples;Min_cycle;Max_cycle;Signal;HPM_P1;HPM_P2
2022/03/05 00:00:55;;;;;;;22.77;7.07;;;-3.80;99.90;;;;;;4959576;28;20037;-74
2022/03/05 00:03:22;;;;;;;19.77;8.05;;;-3.00;99.90;;;;;;4961457;28;20318;-74
2022/03/05 00:05:47;;;;;;;22.30;9.18;;;-3.20;99.90;;;;;;4958241;28;20043;-75
2022/03/05 00:08:13;;;;;;;20.42;7.30;;;-3.40;99.90;;;;;;4960945;28;20372;-74
2022/03/05 00:10:39;;;;;;;16.85;7.18;;;-3.30;99.90;;;;;;4959784;28;20414;-75
2022/03/05 00:13:05;;;;;;;13.38;7.63;;;-3.60;99.90;;;;;;4959424;28;20063;-74
2022/03/05 00:15:32;;;;;;;25.35;7.75;;;-3.60;99.90;;;;;;4958252;28;20038;-76
2022/03/05 00:17:58;;;;;;;18.08;6.88;;;-3.70;99.90;;;;;;4957666;28;20246;-74
2022/03/05 00:20:23;;;;;;;17.02;7.55;;;-2.80;99.90;;;;;;4958207;28;20338;-74
2022/03/05 00:22:52;;;;;;;15.75;7.30;;;-2.40;99.90;;;;;;4960407;28;20434;-75
2022/03/05 00:25:20;;;;;;;15.75;6.63;;;-2.80;99.90;;;;;;4962000;28;20330;-76
2022/03/05 00:27:47;;;;;;;18.05;8.30;;;-3.80;99.90;;;;;;4997650;28;20026;-75
2022/03/05 00:30:13;;;;;;;15.20;6.25;;;-3.90;99.90;;;;;;4996073;28;20034;-78
2022/03/05 00:32:38;;;;;;;19.42;7.10;;;-2.40;99.90;;;;;;4972798;28;20378;-75
2022/03/05 00:35:05;;;;;;;11.77;5.75;;;-4.20;99.90;;;;;;4978510;28;20079;-75
2022/03/05 00:37:32;;;;;;;19.75;6.95;;;-4.40;99.90;;;;;;4977395;28;20034;-73
2022/03/05 00:39:57;;;;;;;17.83;7.10;;;-2.70;99.90;;;;;;4979401;28;20227;-74
2022/03/05 00:42:23;;;;;;;16.23;6.90;;;-3.40;99.90;;;;;;4979168;28;20037;-74
2022/03/05 00:44:49;;;;;;;16.48;6.63;;;-4.00;99.90;;;;;;4976994;28;20110;-76
2022/03/05 00:47:15;;;;;;;27.70;7.03;;;-4.00;99.90;;;;;;4973481;28;20019;-76
2022/03/05 00:49:41;;;;;;;15.63;6.25;;;-3.40;99.90;;;;;;4958823;28;20035;-75
2022/03/05 00:52:08;;;;;;;20.75;7.25;;;-3.00;99.90;;;;;;4958986;28;20027;-74
2022/03/05 00:54:33;;;;;;;15.85;7.18;;;-3.20;99.90;;;;;;4959033;28;20099;-75
2022/03/05 00:56:59;;;;;;;16.15;7.38;;;-3.20;99.90;;;;;;4957258;29;20032;-76
2022/03/05 00:59:25;;;;;;;17.10;6.68;;;-3.50;99.90;;;;;;4957978;28;20042;-77
2022/03/05 01:01:50;;;;;;;13.10;5.88;;;-3.00;99.90;;;;;;4957954;28;20110;-78
2022/03/05 01:04:16;;;;;;;20.20;7.22;;;-3.40;99.90;;;;;;4958575;28;20287;-76
2022/03/05 01:06:42;;;;;;;15.70;6.80;;;-3.70;99.90;;;;;;4958605;28;20295;-75
2022/03/05 01:09:08;;;;;;;10.85;6.05;;;-4.30;99.90;;;;;;4958693;28;20131;-76
2022/03/05 01:11:33;;;;;;;15.45;6.50;;;-2.90;99.90;;;;;;4958948;28;20097;-74
2022/03/05 01:13:59;;;;;;;13.55;6.32;;;-3.80;99.90;;;;;;4957836;29;20038;-74
2022/03/05 01:16:25;;;;;;;19.35;6.82;;;-4.40;99.90;;;;;;4958158;28;20063;-77
2022/03/05 01:18:50;;;;;;;13.20;6.53;;;-3.60;99.90;;;;;;4957280;29;20023;-75
2022/03/05 01:21:16;;;;;;;18.67;8.05;;;-2.50;99.90;;;;;;4957831;28;20031;-74
2022/03/05 01:23:42;;;;;;;17.10;5.82;;;-3.20;99.90;;;;;;4958842;28;20032;-75
2022/03/05 01:26:08;;;;;;;18.88;6.10;;;-4.30;99.90;;;;;;4958678;29;20023;-75
2022/03/05 01:28:34;;;;;;;12.77;5.25;;;-4.30;99.90;;;;;;4956242;28;20055;-76
2022/03/05 01:31:00;;;;;;;20.50;6.40;;;-3.30;99.90;;;;;;4957902;28;20039;-75
2022/03/05 01:33:26;;;;;;;16.10;6.30;;;-2.50;99.90;;;;;;4957783;29;20023;-74
2022/03/05 01:35:51;;;;;;;15.07;6.97;;;-4.40;99.90;;;;;;4958941;29;20073;-76
2022/03/05 01:38:17;;;;;;;19.30;6.90;;;-4.30;99.90;;;;;;4958676;28;20015;-76
2022/03/05 01:40:44;;;;;;;13.48;6.65;;;-3.00;99.90;;;;;;4958071;28;20028;-77
2022/03/05 01:43:10;;;;;;;16.55;5.75;;;-4.80;99.90;;;;;;4958603;28;20023;-78
2022/03/05 01:45:37;;;;;;;15.63;5.90;;;-3.60;99.90;;;;;;4957125;28;20027;-75
2022/03/05 01:48:03;;;;;;;16.92;6.55;;;-2.50;99.90;;;;;;4977015;28;20073;-78
2022/03/05 01:50:29;;;;;;;16.05;6.10;;;-5.00;99.90;;;;;;4977117;28;20278;-76
2022/03/05 01:52:55;;;;;;;18.33;6.53;;;-3.30;99.90;;;;;;4976916;28;20105;-76
2022/03/05 01:55:22;;;;;;;20.15;7.07;;;-5.00;99.90;;;;;;4976548;28;20113;-75
2022/03/05 01:57:48;;;;;;;15.70;5.90;;;-5.10;99.90;;;;;;4977159;28;20082;-75
2022/03/05 02:00:15;;;;;;;16.58;7.28;;;-4.10;99.90;;;;;;4977560;28;20255;-74
2022/03/05 02:02:45;;;;;;;20.88;6.72;;;-4.90;99.90;;;;;;4976015;28;20167;-74
2022/03/05 02:05:12;;;;;;;15.43;7.57;;;-3.50;99.90;;;;;;4979133;28;20027;-76
2022/03/05 02:07:37;;;;;;;14.27;6.82;;;-3.80;99.90;;;;;;4979289;28;20038;-76
2022/03/05 02:10:05;;;;;;;20.75;6.07;;;-5.00;99.90;;;;;;4981172;28;20053;-74
2022/03/05 02:12:33;;;;;;;13.35;5.47;;;-5.00;99.90;;;;;;4981424;28;20029;-75
2022/03/05 02:14:59;;;;;;;16.60;5.90;;;-5.10;99.90;;;;;;4981918;28;20252;-75
2022/03/05 02:17:27;;;;;;;14.23;5.85;;;-5.20;99.90;;;;;;4979095;28;20062;-74
2022/03/05 02:19:56;;;;;;;14.45;6.45;;;-5.10;99.90;;;;;;4980743;28;20050;-80
2022/03/05 02:22:22;;;;;;;18.13;6.50;;;-6.00;99.90;;;;;;4980343;28;20562;-75
2022/03/05 02:24:51;;;;;;;17.55;6.85;;;-5.00;99.90;;;;;;4980317;28;20030;-78
2022/03/05 02:27:17;;;;;;;13.93;6.50;;;-4.90;99.90;;;;;;4978798;28;20110;-78
2022/03/05 02:29:42;;;;;;;14.48;6.05;;;-5.00;99.90;;;;;;4975770;28;20052;-75
2022/03/05 02:32:09;;;;;;;17.92;7.43;;;-5.10;99.90;;;;;;4978957;28;20097;-77
2022/03/05 02:34:34;;;;;;;15.60;5.43;;;-5.20;99.90;;;;;;4980335;28;20268;-77
2022/03/05 02:37:00;;;;;;;17.98;7.45;;;-5.10;99.90;;;;;;4978494;28;20034;-76
2022/03/05 02:39:26;;;;;;;13.70;5.00;;;-5.10;99.90;;;;;;4979275;28;20034;-75
2022/03/05 02:41:53;;;;;;;11.75;5.65;;;-3.80;99.90;;;;;;4979773;28;20034;-75
2022/03/05 02:44:21;;;;;;;15.23;5.97;;;-4.00;99.90;;;;;;4979105;28;20018;-76
2022/03/05 02:46:47;;;;;;;13.32;5.95;;;-3.80;99.90;;;;;;4979238;28;20027;-75
2022/03/05 02:49:12;;;;;;;12.98;6.07;;;-5.50;99.90;;;;;;4977807;28;20168;-76
2022/03/05 02:51:38;;;;;;;15.05;6.22;;;-5.50;99.90;;;;;;4978611;28;20386;-76
2022/03/05 02:54:04;;;;;;;14.25;7.68;;;-5.30;99.90;;;;;;4978136;28;20030;-76
2022/03/05 02:56:30;;;;;;;19.98;6.75;;;-5.50;99.90;;;;;;4979695;28;20042;-76
2022/03/05 02:58:56;;;;;;;16.77;6.70;;;-5.30;99.90;;;;;;4980407;28;20053;-75
2022/03/05 03:01:22;;;;;;;19.48;7.05;;;-5.00;99.90;;;;;;4979656;28;20034;-76
2022/03/05 03:03:48;;;;;;;12.80;6.35;;;-3.10;99.90;;;;;;4979677;28;20131;-77
2022/03/05 03:06:15;;;;;;;14.93;6.10;;;-5.00;99.90;;;;;;4981785;28;20026;-77
2022/03/05 03:08:40;;;;;;;13.98;5.68;;;-5.10;99.90;;;;;;4980087;28;20018;-76
2022/03/05 03:11:06;;;;;;;15.43;6.75;;;-4.60;99.90;;;;;;4980900;28;20081;-76
2022/03/05 03:13:32;;;;;;;14.98;6.63;;;-5.40;99.90;;;;;;4979850;28;20030;-77
2022/03/05 03:15:58;;;;;;;20.60;6.05;;;-5.50;99.90;;;;;;4982746;28;20310;-78
2022/03/05 03:18:23;;;;;;;18.80;6.57;;;-3.40;99.90;;;;;;4980479;28;20030;-77
2022/03/05 03:20:49;;;;;;;18.38;6.60;;;-5.60;99.90;;;;;;4981422;28;20065;-76
2022/03/05 03:23:15;;;;;;;18.98;7.95;;;-5.60;99.90;;;;;;4980599;28;20030;-76
2022/03/05 03:25:40;;;;;;;19.42;7.32;;;-3.80;99.90;;;;;;4981834;28;20090;-76
2022/03/05 03:28:07;;;;;;;18.70;6.28;;;-5.80;99.90;;;;;;4980840;28;20070;-76
2022/03/05 03:30:34;;;;;;;18.23;6.22;;;-5.90;99.90;;;;;;4981595;28;20034;-76
2022/03/05 03:33:00;;;;;;;16.17;5.85;;;-5.30;99.90;;;;;;4981738;28;20022;-78
2022/03/05 03:35:26;;;;;;;16.67;6.32;;;-6.00;99.90;;;;;;4982415;28;20038;-76
2022/03/05 03:37:52;;;;;;;21.27;6.05;;;-6.10;99.90;;;;;;4981622;28;20244;-76
2022/03/05 03:40:19;;;;;;;17.52;7.05;;;-6.10;99.90;;;;;;4980776;28;20277;-76
2022/03/05 03:42:48;;;;;;;14.55;6.43;;;-3.60;99.90;;;;;;4980960;28;20122;-78
2022/03/05 03:45:14;;;;;;;15.57;5.40;;;-4.20;99.90;;;;;;4982066;28;20085;-77
2022/03/05 03:47:42;;;;;;;19.58;5.60;;;-6.00;99.90;;;;;;4981637;28;20034;-77
2022/03/05 03:50:10;;;;;;;17.13;6.68;;;-6.10;99.90;;;;;;4981049;28;20038;-76
2022/03/05 03:52:35;;;;;;;18.80;6.80;;;-4.10;99.90;;;;;;4981748;28;20026;-78
2022/03/05 03:55:03;;;;;;;14.68;6.10;;;-4.50;99.90;;;;;;4981529;28;20023;-76
2022/03/05 03:57:29;;;;;;;19.92;7.28;;;-6.00;99.90;;;;;;4981537;28;20031;-76
2022/03/05 03:59:55;;;;;;;14.95;7.45;;;-5.10;99.90;;;;;;4981839;28;20281;-76
2022/03/05 04:02:22;;;;;;;13.60;6.28;;;-4.70;99.90;;;;;;4980428;28;20190;-78
2022/03/05 04:04:48;;;;;;;17.40;6.10;;;-6.20;99.90;;;;;;4981266;28;20023;-76
2022/03/05 04:09:59;;;;;;;27.77;6.00;;;-4.50;99.90;;;;;;4980866;28;20083;-76
2022/03/05 04:12:24;;;;;;;17.77;7.10;;;-6.00;99.90;;;;;;4980952;28;20022;-76
2022/03/05 04:14:50;;;;;;;23.00;6.65;;;-6.00;99.90;;;;;;4980790;28;20030;-76
2022/03/05 04:17:16;;;;;;;19.25;6.53;;;-6.00;99.90;;;;;;4979386;28;20138;-76
2022/03/05 04:19:43;;;;;;;17.80;7.35;;;-6.10;99.90;;;;;;4980832;28;20057;-77
2022/03/05 04:22:09;;;;;;;18.92;6.70;;;-6.10;99.90;;;;;;4981094;28;20022;-78
2022/03/05 04:24:35;;;;;;;17.30;6.45;;;-6.20;99.90;;;;;;4980822;28;20090;-76
2022/03/05 04:27:00;;;;;;;16.23;6.22;;;-5.80;99.90;;;;;;4980459;28;20034;-78
2022/03/05 04:29:26;;;;;;;16.27;6.28;;;-5.60;99.90;;;;;;4980517;28;20046;-76
2022/03/05 04:31:52;;;;;;;11.65;5.10;;;-6.10;99.90;;;;;;4981183;28;20022;-76
2022/03/05 04:34:18;;;;;;;19.27;6.15;;;-3.80;99.90;;;;;;4979157;28;20123;-76
2022/03/05 04:36:44;;;;;;;12.85;5.22;;;-6.10;99.90;;;;;;4980661;28;20019;-76
2022/03/05 04:39:10;;;;;;;11.65;4.82;;;-4.60;99.90;;;;;;4980803;28;20031;-76
2022/03/05 04:41:36;;;;;;;17.27;6.72;;;-6.20;99.90;;;;;;4980928;28;20023;-76
2022/03/05 04:44:02;;;;;;;12.30;5.70;;;-6.30;99.90;;;;;;4980436;28;20065;-78
2022/03/05 04:46:28;;;;;;;20.33;6.85;;;-6.20;99.90;;;;;;4980780;28;20086;-77
2022/03/05 04:48:54;;;;;;;17.27;6.60;;;-6.50;99.90;;;;;;4980189;28;20073;-76
2022/03/05 04:51:20;;;;;;;18.65;6.20;;;-4.10;99.90;;;;;;4979966;28;20037;-76
2022/03/05 04:53:45;;;;;;;18.10;6.40;;;-3.40;99.90;;;;;;4980344;28;20023;-76
2022/03/05 04:56:11;;;;;;;18.17;7.10;;;-6.50;99.90;;;;;;4980930;28;20158;-76
2022/03/05 04:58:37;;;;;;;22.15;6.82;;;-6.60;99.90;;;;;;4980351;28;20023;-78
2022/03/05 05:01:03;;;;;;;17.67;6.15;;;-6.60;99.90;;;;;;4979275;28;20029;-76
2022/03/05 05:03:29;;;;;;;15.35;6.20;;;-6.70;99.90;;;;;;4980388;28;20137;-77
2022/03/05 05:05:55;;;;;;;18.67;7.05;;;-6.70;99.90;;;;;;4979102;28;20015;-76
2022/03/05 05:08:20;;;;;;;20.52;6.72;;;-6.50;99.90;;;;;;4980317;28;20030;-76
2022/03/05 05:10:46;;;;;;;19.90;7.38;;;-4.10;99.90;;;;;;4980137;28;20034;-76
2022/03/05 05:13:12;;;;;;;16.38;7.50;;;-6.00;99.90;;;;;;4978586;28;20039;-77
2022/03/05 05:15:38;;;;;;;20.13;6.70;;;-6.00;99.90;;;;;;4980534;28;20031;-75
2022/03/05 05:18:04;;;;;;;15.90;6.82;;;-6.00;99.90;;;;;;4979666;28;20114;-77
2022/03/05 05:20:30;;;;;;;17.77;6.60;;;-6.20;99.90;;;;;;4978878;28;20034;-76
2022/03/05 05:22:56;;;;;;;18.55;6.55;;;-6.30;99.90;;;;;;4969851;28;20054;-76
2022/03/05 05:25:22;;;;;;;23.02;7.20;;;-6.20;99.90;;;;;;4970877;28;20264;-76
2022/03/05 05:27:48;;;;;;;16.58;7.03;;;-6.30;99.90;;;;;;4971127;28;20496;-75
2022/03/05 05:30:13;;;;;;;17.25;8.80;;;-6.30;99.90;;;;;;4970927;28;20045;-75
2022/03/05 05:32:39;;;;;;;29.38;6.68;;;-6.10;99.90;;;;;;4971207;28;20023;-78
2022/03/05 05:35:05;;;;;;;19.67;7.18;;;-5.10;99.90;;;;;;4969921;28;20059;-76
2022/03/05 05:37:32;;;;;;;17.15;7.18;;;-5.80;99.90;;;;;;4971086;28;20023;-78
2022/03/05 05:39:57;;;;;;;19.85;5.93;;;-5.70;99.90;;;;;;4972598;28;20046;-75
2022/03/05 05:42:23;;;;;;;24.77;7.07;;;-3.40;99.90;;;;;;4975643;28;20562;-75
2022/03/05 05:44:49;;;;;;;15.85;6.45;;;-3.60;99.90;;;;;;4974822;28;20039;-76
2022/03/05 05:47:14;;;;;;;16.85;7.47;;;-6.00;99.90;;;;;;4974979;28;20022;-75
2022/03/05 05:49:40;;;;;;;15.35;6.50;;;-6.20;99.90;;;;;;4974591;28;20561;-76
2022/03/05 05:52:06;;;;;;;15.43;6.22;;;-6.30;99.90;;;;;;4974777;28;20395;-75
2022/03/05 05:54:32;;;;;;;25.92;8.15;;;-6.30;99.90;;;;;;4974656;28;20037;-75
2022/03/05 05:56:58;;;;;;;15.88;5.38;;;-5.20;99.90;;;;;;4974225;28;20110;-77
2022/03/05 05:59:24;;;;;;;15.75;6.03;;;-6.40;99.90;;;;;;4974519;28;20438;-76
2022/03/05 06:01:50;;;;;;;17.40;5.63;;;-5.40;99.90;;;;;;4974502;28;20553;-76
2022/03/05 06:04:15;;;;;;;13.70;5.60;;;-6.50;99.90;;;;;;4974685;28;20062;-76
2022/03/05 06:06:41;;;;;;;17.38;6.22;;;-6.60;99.90;;;;;;4973161;28;20031;-76
2022/03/05 06:09:07;;;;;;;17.17;6.15;;;-6.60;99.90;;;;;;4974645;28;20027;-78
2022/03/05 06:11:33;;;;;;;22.13;7.10;;;-6.60;99.90;;;;;;4974141;28;20031;-76
2022/03/05 06:13:58;;;;;;;16.58;6.85;;;-4.70;99.90;;;;;;4974204;28;20101;-75
2022/03/05 06:16:24;;;;;;;15.93;6.13;;;-6.60;99.90;;;;;;4975594;28;20207;-74
2022/03/05 06:18:50;;;;;;;19.20;6.13;;;-6.60;99.90;;;;;;4974315;28;20049;-79
2022/03/05 06:21:15;;;;;;;18.85;6.75;;;-6.60;99.90;;;;;;4974350;28;20049;-76
2022/03/05 06:23:41;;;;;;;16.98;6.97;;;-6.60;99.90;;;;;;4974539;28;20034;-76
2022/03/05 06:26:07;;;;;;;23.65;7.22;;;-6.20;99.90;;;;;;4974099;28;20041;-76
2022/03/05 06:28:33;;;;;;;15.73;7.13;;;-6.50;99.90;;;;;;4973803;28;20069;-78
2022/03/05 06:30:59;;;;;;;19.83;7.05;;;-4.00;99.90;;;;;;4973945;28;20117;-78
2022/03/05 06:33:26;;;;;;;14.18;5.93;;;-4.80;99.90;;;;;;4972735;28;20023;-76
2022/03/05 06:35:51;;;;;;;20.65;7.40;;;-6.10;99.90;;;;;;4974100;28;20659;-76
2022/03/05 06:38:17;;;;;;;15.73;6.45;;;-6.00;99.90;;;;;;4974426;28;20062;-76
2022/03/05 06:40:44;;;;;;;15.57;7.07;;;-5.00;99.90;;;;;;4974203;28;20027;-77
2022/03/05 06:43:10;;;;;;;20.35;7.18;;;-5.40;99.90;;;;;;4973577;28;20534;-75
2022/03/05 06:45:36;;;;;;;26.00;8.57;;;-6.00;99.90;;;;;;4972434;28;20056;-75
2022/03/05 06:48:03;;;;;;;16.60;7.43;;;-6.00;99.90;;;;;;4974411;28;20310;-75
2022/03/05 06:50:29;;;;;;;20.80;9.05;;;-6.00;99.90;;;;;;4972716;28;20385;-76
2022/03/05 06:52:54;;;;;;;29.20;11.25;;;-5.90;99.90;;;;;;4980719;28;20050;-75
2022/03/05 06:55:20;;;;;;;22.58;10.43;;;-5.80;99.90;;;;;;4979896;28;20475;-77
2022/03/05 06:57:46;;;;;;;21.48;7.72;;;-3.00;99.90;;;;;;4972010;28;20076;-78
2022/03/05 07:00:13;;;;;;;20.92;7.85;;;-3.40;99.90;;;;;;4976024;28;20035;-79
2022/03/05 07:02:40;;;;;;;25.50;9.55;;;-5.20;99.90;;;;;;4974132;28;20023;-79
2022/03/05 07:05:06;;;;;;;25.35;7.63;;;-4.70;99.90;;;;;;4973939;28;20025;-76
2022/03/05 07:07:32;;;;;;;19.35;8.35;;;-4.40;99.90;;;;;;4971565;28;20027;-78
2022/03/05 07:09:57;;;;;;;15.63;7.65;;;-3.20;99.90;;;;;;4974292;28;20407;-78
2022/03/05 07:12:25;;;;;;;19.33;8.00;;;-3.90;99.90;;;;;;4973848;28;20015;-78
2022/03/05 07:14:51;;;;;;;20.40;9.75;;;-4.10;99.90;;;;;;4972882;28;20487;-76
2022/03/05 07:17:16;;;;;;;43.65;16.38;;;-2.90;99.90;;;;;;4973719;28;20058;-77
2022/03/05 07:19:42;;;;;;;89.35;38.05;;;-3.10;99.90;;;;;;4974550;28;20090;-75
2022/03/05 07:22:08;;;;;;;76.18;31.80;;;-3.40;99.90;;;;;;4973666;28;20559;-78
2022/03/05 07:24:34;;;;;;;60.05;28.13;;;-2.70;99.90;;;;;;4973737;28;20700;-75
2022/03/05 07:27:00;;;;;;;46.30;22.98;;;-3.40;99.90;;;;;;4973246;28;20597;-76
2022/03/05 07:29:25;;;;;;;32.53;15.40;;;-2.80;99.90;;;;;;4972137;28;20487;-75
2022/03/05 07:31:51;;;;;;;34.88;14.50;;;-3.10;99.90;;;;;;4973938;28;20077;-79
2022/03/05 07:34:17;;;;;;;42.03;18.45;;;-2.80;99.90;;;;;;4974189;28;20018;-75
2022/03/05 07:36:42;;;;;;;42.78;17.63;;;-2.60;99.90;;;;;;4973357;28;20035;-81
2022/03/05 07:39:08;;;;;;;29.33;14.50;;;-3.10;99.90;;;;;;4980267;28;20447;-76
2022/03/05 07:41:36;;;;;;;31.10;12.85;;;-3.00;99.90;;;;;;4969969;28;20114;-76
2022/03/05 07:44:03;;;;;;;30.85;12.30;;;-2.80;99.90;;;;;;4970457;28;20470;-76
2022/03/05 07:46:28;;;;;;;34.35;12.52;;;-2.80;99.90;;;;;;4969822;28;20384;-75
2022/03/05 07:48:54;;;;;;;28.92;10.98;;;-2.50;99.90;;;;;;4970370;28;20093;-74
2022/03/05 07:51:20;;;;;;;41.20;14.85;;;-1.30;99.90;;;;;;4970282;28;20042;-74
2022/03/05 07:53:45;;;;;;;36.75;12.57;;;-0.90;99.90;;;;;;4961175;28;20484;-74
2022/03/05 07:56:11;;;;;;;35.53;14.18;;;-1.70;99.90;;;;;;4950554;28;20122;-74
2022/03/05 07:58:37;;;;;;;27.70;11.98;;;-1.50;99.90;;;;;;4949575;28;20118;-74
2022/03/05 08:01:02;;;;;;;40.42;15.02;;;-1.20;99.90;;;;;;4952100;28;20526;-80
2022/03/05 08:03:28;;;;;;;36.58;14.10;;;-1.00;99.90;;;;;;4951881;28;20027;-79
2022/03/05 08:05:54;;;;;;;34.72;13.68;;;-0.80;99.90;;;;;;4950799;28;20027;-77
2022/03/05 08:08:19;;;;;;;32.88;13.48;;;-0.60;99.90;;;;;;4968061;28;20031;-78
2022/03/05 08:10:45;;;;;;;36.22;14.95;;;-0.40;99.90;;;;;;4974002;28;20480;-78
2022/03/05 08:13:12;;;;;;;36.90;14.90;;;-0.20;99.90;;;;;;4970247;28;20027;-79
2022/03/05 08:15:38;;;;;;;34.72;13.90;;;0.00;99.90;;;;;;4968692;28;20038;-73
2022/03/05 08:18:04;;;;;;;31.92;14.32;;;0.20;99.90;;;;;;4969955;28;20054;-79
2022/03/05 08:20:32;;;;;;;40.45;13.70;;;0.20;99.90;;;;;;4970538;28;20035;-80
2022/03/05 08:22:58;;;;;;;30.90;13.65;;;0.40;99.90;;;;;;4971953;28;20019;-80
2022/03/05 08:25:25;;;;;;;30.55;12.00;;;0.40;99.90;;;;;;4973863;28;20027;-80
2022/03/05 08:27:51;;;;;;;36.47;13.55;;;0.50;99.90;;;;;;4968689;28;20022;-81
2022/03/05 08:30:18;;;;;;;43.33;14.15;;;0.40;99.90;;;;;;4988453;28;20035;-80
2022/03/05 08:32:44;;;;;;;33.03;13.70;;;0.50;99.90;;;;;;4987770;28;20423;-80
2022/03/05 08:35:11;;;;;;;32.42;11.73;;;0.50;99.90;;;;;;4972406;28;20027;-81
2022/03/05 08:37:38;;;;;;;36.17;13.43;;;0.50;99.90;;;;;;4976137;28;20117;-81
2022/03/05 08:40:07;;;;;;;35.00;14.23;;;0.50;99.90;;;;;;4987918;28;20024;-80
2022/03/05 08:42:32;;;;;;;35.08;11.50;;;0.50;99.90;;;;;;4986953;28;20053;-78
2022/03/05 08:44:58;;;;;;;34.55;14.25;;;0.60;99.90;;;;;;4970046;28;20074;-78
2022/03/05 08:47:24;;;;;;;30.48;11.68;;;0.70;99.90;;;;;;4972275;28;20030;-79
2022/03/05 08:49:50;;;;;;;27.45;11.10;;;0.80;99.90;;;;;;4986507;28;20041;-78
2022/03/05 08:52:16;;;;;;;35.67;14.25;;;0.90;99.90;;;;;;4969905;28;20045;-80
2022/03/05 08:54:41;;;;;;;34.70;11.98;;;0.90;99.90;;;;;;4972432;28;20026;-79
2022/03/05 08:57:09;;;;;;;31.35;13.05;;;1.00;99.90;;;;;;4970613;28;20033;-80
2022/03/05 08:59:35;;;;;;;30.15;12.38;;;1.00;99.90;;;;;;4962168;28;20026;-79
2022/03/05 09:02:01;;;;;;;32.40;10.80;;;1.00;99.90;;;;;;4973036;28;20096;-80
2022/03/05 09:04:27;;;;;;;28.45;12.05;;;1.00;99.90;;;;;;4972127;28;20035;-80
2022/03/05 09:06:53;;;;;;;26.17;10.68;;;1.00;99.90;;;;;;4971656;28;20019;-79
2022/03/05 09:09:19;;;;;;;30.58;12.00;;;1.10;99.90;;;;;;4971149;28;20034;-80
2022/03/05 09:11:45;;;;;;;24.30;9.82;;;1.10;99.90;;;;;;4970717;28;20026;-80
2022/03/05 09:14:11;;;;;;;26.85;11.05;;;1.10;99.90;;;;;;4962767;28;20369;-80
2022/03/05 09:16:40;;;;;;;24.40;9.85;;;1.20;99.90;;;;;;4970522;28;20130;-82
2022/03/05 09:19:06;;;;;;;33.60;12.88;;;1.30;99.90;;;;;;4972681;28;20029;-80
2022/03/05 09:21:34;;;;;;;28.05;11.18;;;1.40;99.90;;;;;;4974158;28;20039;-80
2022/03/05 09:24:00;;;;;;;24.50;9.63;;;1.30;99.90;;;;;;4976493;28;20029;-80
2022/03/05 09:26:26;;;;;;;21.80;9.90;;;1.40;99.90;;;;;;4972391;28;20057;-79
2022/03/05 09:28:52;;;;;;;26.92;9.85;;;1.40;99.90;;;;;;4970408;28;20054;-79
2022/03/05 09:31:17;;;;;;;23.92;8.90;;;1.50;99.90;;;;;;4971647;28;20386;-79
2022/03/05 09:33:43;;;;;;;29.77;11.50;;;1.70;99.90;;;;;;4951869;28;20442;-79
2022/03/05 09:36:09;;;;;;;25.83;9.65;;;1.80;99.90;;;;;;4951308;28;20034;-77
2022/03/05 09:38:35;;;;;;;25.05;8.77;;;1.90;99.90;;;;;;4966325;28;20097;-78
2022/03/05 09:41:03;;;;;;;29.80;10.70;;;2.00;99.80;;;;;;4968406;28;20045;-77
2022/03/05 09:43:28;;;;;;;24.60;10.55;;;1.80;99.90;;;;;;4968061;28;20074;-81
2022/03/05 09:45:55;;;;;;;22.83;9.40;;;2.00;99.80;;;;;;4969246;28;20031;-77
2022/03/05 09:48:22;;;;;;;27.80;10.48;;;2.00;99.70;;;;;;4968724;28;20031;-76
2022/03/05 09:50:47;;;;;;;19.00;9.80;;;2.10;98.70;;;;;;4967985;28;20463;-77
2022/03/05 09:53:13;;;;;;;27.00;10.93;;;2.10;99.20;;;;;;4968068;28;20102;-76
2022/03/05 09:55:39;;;;;;;24.67;9.50;;;2.20;99.80;;;;;;4968329;28;20037;-78
2022/03/05 09:58:04;;;;;;;20.88;8.73;;;2.30;98.60;;;;;;4969504;28;20023;-80
2022/03/05 10:00:33;;;;;;;25.33;10.32;;;2.40;95.40;;;;;;4952304;28;20061;-76
2022/03/05 10:02:59;;;;;;;19.80;8.93;;;2.30;93.70;;;;;;4969183;28;20058;-78
2022/03/05 10:05:26;;;;;;;26.98;10.52;;;2.30;94.10;;;;;;4967787;28;20061;-77
2022/03/05 10:08:08;;;;;;;22.27;9.68;;;2.40;93.10;;;;;;4968458;28;20023;-76
2022/03/05 10:10:47;;;;;;;22.45;8.75;;;2.50;92.80;;;;;;4968017;28;20594;-76
2022/03/05 10:13:16;;;;;;;21.92;8.77;;;2.70;92.90;;;;;;4967905;28;20035;-75
2022/03/05 10:15:42;;;;;;;20.83;9.82;;;2.70;91.10;;;;;;4966553;28;20090;-77
2022/03/05 10:18:08;;;;;;;18.65;8.30;;;2.80;91.00;;;;;;4968284;28;20035;-76
2022/03/05 10:20:41;;;;;;;17.55;8.88;;;2.90;90.20;;;;;;4968127;28;20027;-77
2022/03/05 10:23:08;;;;;;;18.90;8.30;;;2.90;88.20;;;;;;4969132;28;20105;-75
2022/03/05 10:25:43;;;;;;;18.80;7.80;;;3.00;87.70;;;;;;4969358;28;20065;-82
2022/03/05 10:28:23;;;;;;;19.30;9.15;;;3.20;85.80;;;;;;4978363;28;20133;-81
2022/03/05 10:31:07;;;;;;;18.73;7.00;;;3.20;84.00;;;;;;4977563;28;20130;-82
2022/03/05 10:33:35;;;;;;;18.58;7.03;;;3.20;82.00;;;;;;4983874;28;20026;-80
2022/03/05 10:36:05;;;;;;;15.43;8.52;;;3.20;82.10;;;;;;4991910;28;20118;-79
2022/03/05 10:38:50;;;;;;;19.35;7.03;;;3.30;82.00;;;;;;4992896;28;20030;-79
2022/03/05 10:41:19;;;;;;;18.30;7.15;;;3.40;81.00;;;;;;4988548;28;20034;-78
2022/03/05 10:44:06;;;;;;;14.52;6.50;;;3.40;80.70;;;;;;4953217;28;20074;-79
2022/03/05 10:46:42;;;;;;;13.60;5.90;;;3.50;78.40;;;;;;4951824;28;20089;-78
2022/03/05 10:49:31;;;;;;;15.85;6.82;;;3.50;77.60;;;;;;4953735;28;20038;-80
2022/03/05 10:52:02;;;;;;;10.02;4.82;;;3.60;76.90;;;;;;4970921;28;20485;-80
2022/03/05 10:54:41;;;;;;;14.75;5.57;;;3.60;74.60;;;;;;4951102;29;20027;-78
2022/03/05 10:57:21;;;;;;;12.97;6.20;;;3.70;74.70;;;;;;4961451;28;20027;-79
2022/03/05 10:59:49;;;;;;;13.15;5.80;;;3.90;72.90;;;;;;4973071;28;20081;-79
2022/03/05 11:02:18;;;;;;;12.63;6.40;;;3.90;73.30;;;;;;4973931;28;20125;-80
2022/03/05 11:04:45;;;;;;;14.50;5.10;;;4.00;72.10;;;;;;4970927;28;20403;-79
2022/03/05 11:07:12;;;;;;;13.52;5.00;;;4.00;72.70;;;;;;4970785;28;20240;-80
2022/03/05 11:09:39;;;;;;;11.02;5.18;;;4.00;70.00;;;;;;4971601;28;20026;-79
2022/03/05 11:12:12;;;;;;;10.93;5.25;;;4.00;71.20;;;;;;4971882;28;20054;-79
2022/03/05 11:14:41;;;;;;;14.95;5.63;;;4.10;70.30;;;;;;4971758;28;20026;-79
2022/03/05 11:17:07;;;;;;;12.38;6.40;;;4.00;70.20;;;;;;4971173;28;20082;-79
2022/03/05 11:19:33;;;;;;;17.02;7.43;;;4.10;72.50;;;;;;4969958;28;20086;-79
2022/03/05 11:21:59;;;;;;;13.18;5.38;;;4.20;73.80;;;;;;4954061;28;20543;-80
2022/03/05 11:24:25;;;;;;;9.45;5.20;;;4.40;71.20;;;;;;4953570;28;20038;-80
2022/03/05 11:26:54;;;;;;;11.20;4.97;;;4.40;71.70;;;;;;4953662;28;20035;-82
2022/03/05 11:29:23;;;;;;;14.45;6.10;;;4.40;70.00;;;;;;4952128;28;20031;-79
2022/03/05 11:31:49;;;;;;;11.48;5.50;;;4.30;68.80;;;;;;4963367;28;20102;-79
2022/03/05 11:34:21;;;;;;;17.75;7.53;;;4.30;68.50;;;;;;4973324;28;20118;-80
2022/03/05 11:36:48;;;;;;;9.52;5.20;;;4.30;68.40;;;;;;4976323;28;20027;-80
2022/03/05 11:39:37;;;;;;;9.20;4.80;;;4.30;67.20;;;;;;4981569;28;20027;-81
2022/03/05 11:42:08;;;;;;;8.73;4.28;;;4.60;68.90;;;;;;4982120;28;20214;-81
2022/03/05 11:44:41;;;;;;;12.40;5.00;;;4.80;68.40;;;;;;4984949;28;20093;-81
2022/03/05 11:47:19;;;;;;;9.27;4.60;;;5.00;67.20;;;;;;4986114;28;20019;-81
2022/03/05 11:49:59;;;;;;;9.98;5.18;;;4.90;66.00;;;;;;4977541;28;20065;-81
2022/03/05 11:52:55;;;;;;;10.85;4.88;;;4.90;65.60;;;;;;4978901;28;20453;-81
2022/03/05 11:55:29;;;;;;;10.90;5.85;;;4.90;66.50;;;;;;4978382;28;20447;-80
2022/03/05 11:57:57;;;;;;;13.55;5.85;;;5.00;65.60;;;;;;4976098;28;20098;-81
2022/03/05 12:00:26;;;;;;;11.77;5.22;;;4.80;66.80;;;;;;4975378;28;20420;-81
2022/03/05 12:02:58;;;;;;;11.07;6.85;;;4.80;67.40;;;;;;4977370;28;20050;-80
2022/03/05 12:05:32;;;;;;;12.40;6.30;;;5.00;67.70;;;;;;4975512;28;20070;-80
2022/03/05 12:07:59;;;;;;;14.23;5.68;;;5.20;69.50;;;;;;4975990;28;20554;-81
2022/03/05 12:10:25;;;;;;;13.60;5.93;;;5.00;67.10;;;;;;4976238;28;20072;-81
2022/03/05 12:12:55;;;;;;;14.13;5.78;;;5.20;67.30;;;;;;4975685;28;20019;-80
2022/03/05 12:15:34;;;;;;;11.63;5.47;;;5.30;68.00;;;;;;4975296;28;20031;-80
2022/03/05 12:18:02;;;;;;;15.40;6.95;;;5.30;67.40;;;;;;4975375;28;20043;-81
2022/03/05 12:20:32;;;;;;;13.40;5.70;;;5.10;66.40;;;;;;4974458;28;20058;-81
2022/03/05 12:23:04;;;;;;;16.85;6.55;;;5.10;66.60;;;;;;4974622;28;20061;-80
2022/03/05 12:25:38;;;;;;;13.57;5.68;;;5.20;65.20;;;;;;4976760;28;20019;-80
2022/03/05 12:28:10;;;;;;;10.57;5.78;;;5.40;64.20;;;;;;4974921;28;20395;-81
2022/03/05 12:30:37;;;;;;;10.10;4.72;;;5.70;65.00;;;;;;4975195;28;20062;-82
2022/03/05 12:33:10;;;;;;;11.23;5.78;;;6.40;62.40;;;;;;4975918;28;20019;-81
2022/03/05 12:35:36;;;;;;;14.32;5.68;;;6.40;61.40;;;;;;4975114;28;20280;-81
2022/03/05 12:38:04;;;;;;;18.05;6.57;;;6.40;60.40;;;;;;4976179;28;20094;-81
2022/03/05 12:40:31;;;;;;;9.63;6.03;;;7.30;60.30;;;;;;4976297;28;20030;-81